sensor_id;sensor_type;location;lat;lon;timestamp;P1;durP1;ratioP1;P2;durP2;ratioP2
26036;SDS011;13810;48.376;10.944;2022-12-19T00:00:23;82.97;;;26.30;;
26036;SDS011;13810;48.376;10.944;2022-12-19T00:01:07;81.50;;;25.10;;
26036;SDS011;13810;48.376;10.944;2022-12-19T00:01:45;80.40;;;26.45;;
26036;SDS011;13810;48.376;10.944;2022-12-19T00:02:16;84.30;;;26.17;;
26036;SDS011;13810;48.376;10.944;2022-12-19T00:02:47;74.20;;;26.42;;
26036;SDS011;13810;48.376;10.944;2022-12-19T00:03:17;83.80;;;26.73;;
26036;SDS011;13810;48.376;10.944;2022-12-19T00:03:49;63.72;;;24.05;;
26036;SDS011;13810;48.376;10.944;2022-12-19T00:04:22;83.68;;;27.17;;
26036;SDS011;13810;48.376;10.944;2022-12-19T00:04:53;76.97;;;25.80;;
26036;SDS011;13810;48.376;10.944;2022-12-19T00:05:23;72.28;;;24.70;;
26036;SDS011;13810;48.376;10.944;2022-12-19T00:05:54;86.88;;;25.38;;
26036;SDS011;13810;48.376;10.944;2022-12-19T00:06:25;78.53;;;26.17;;
26036;SDS011;13810;48.376;10.944;2022-12-19T00:06:56;75.60;;;26.65;;
26036;SDS011;13810;48.376;10.944;2022-12-19T00:07:29;76.07;;;27.58;;
26036;SDS011;13810;48.376;10.944;2022-12-19T00:08:00;76.90;;;26.65;;
26036;SDS011;13810;48.376;10.944;2022-12-19T00:08:31;74.90;;;25.67;;
26036;SDS011;13810;48.376;10.944;2022-12-19T00:09:02;80.10;;;26.00;;
26036;SDS011;13810;48.376;10.944;2022-12-19T00:09:34;85.55;;;27.02;;
26036;SDS011;13810;48.376;10.944;2022-12-19T00:10:05;75.22;;;25.92;;
26036;SDS011;13810;48.376;10.944;2022-12-19T00:10:36;74.15;;;26.52;;
26036;SDS011;13810;48.376;10.944;2022-12-19T00:11:13;75.05;;;24.70;;
26036;SDS011;13810;48.376;10.944;2022-12-19T00:11:46;74.00;;;25.65;;
26036;SDS011;13810;48.376;10.944;2022-12-19T00:12:17;78.82;;;27.67;;
26036;SDS011;13810;48.376;10.944;2022-12-19T00:12:48;88.18;;;28.08;;
26036;SDS011;13810;48.376;10.944;2022-12-19T00:13:18;84.00;;;26.63;;
26036;SDS011;13810;48.376;10.944;2022-12-19T00:13:49;84.78;;;28.20;;
26036;SDS011;13810;48.376;10.944;2022-12-19T00:14:20;80.13;;;25.67;;
26036;SDS011;13810;48.376;10.944;2022-12-19T00:14:51;87.75;;;28.77;;
26036;SDS011;13810;48.376;10.944;2022-12-19T00:15:21;79.63;;;25.55;;
26036;SDS011;13810;48.376;10.944;2022-12-19T00:15:52;82.75;;;25.83;;
26036;SDS011;13810;48.376;10.944;2022-12-19T00:16:27;83.35;;;26.38;;
26036;SDS011;13810;48.376;10.944;2022-12-19T00:16:59;78.32;;;25.15;;
26036;SDS011;13810;48.376;10.944;2022-12-19T00:17:29;65.32;;;25.30;;
26036;SDS011;13810;48.376;10.944;2022-12-19T00:18:02;77.50;;;26.80;;
26036;SDS011;13810;48.376;10.944;2022-12-19T00:18:32;78.25;;;25.25;;
26036;SDS011;13810;48.376;10.944;2022-12-19T00:19:03;83.50;;;27.35;;
26036;SDS011;13810;48.376;10.944;2022-12-19T00:19:34;80.63;;;25.65;;
26036;SDS011;13810;48.376;10.944;2022-12-19T00:20:04;85.00;;;25.15;;
26036;SDS011;13810;48.376;10.944;2022-12-19T00:20:35;82.47;;;26.20;;
26036;SDS011;13810;48.376;10.944;2022-12-19T00:21:06;89.10;;;28.10;;
26036;SDS011;13810;48.376;10.944;2022-12-19T00:21:38;75.10;;;26.60;;
26036;SDS011;13810;48.376;10.944;2022-12-19T00:22:09;82.72;;;26.45;;
26036;SDS011;13810;48.376;10.944;2022-12-19T00:22:39;81.97;;;26.42;;
26036;SDS011;13810;48.376;10.944;2022-12-19T00:23:10;92.55;;;28.15;;
26036;SDS011;13810;48.376;10.944;2022-12-19T00:23:41;77.90;;;28.35;;
26036;SDS011;13810;48.376;10.944;2022-12-19T00:24:12;70.85;;;24.27;;
26036;SDS011;13810;48.376;10.944;2022-12-19T00:24:43;75.13;;;27.15;;
26036;SDS011;13810;48.376;10.944;2022-12-19T00:25:14;74.72;;;25.55;;
26036;SDS011;13810;48.376;10.944;2022-12-19T00:25:44;74.72;;;24.92;;
26036;SDS011;13810;48.376;10.944;2022-12-19T00:26:19;86.85;;;27.42;;
26036;SDS011;13810;48.376;10.944;2022-12-19T00:26:51;72.28;;;25.13;;
26036;SDS011;13810;48.376;10.944;2022-12-19T00:27:22;77.15;;;25.50;;
26036;SDS011;13810;48.376;10.944;2022-12-19T00:27:55;71.22;;;24.73;;
26036;SDS011;13810;48.376;10.944;2022-12-19T00:28:26;79.35;;;25.40;;
26036;SDS011;13810;48.376;10.944;2022-12-19T00:28:58;65.47;;;22.45;;
26036;SDS011;13810;48.376;10.944;2022-12-19T00:29:30;80.97;;;25.33;;
26036;SDS011;13810;48.376;10.944;2022-12-19T00:30:01;69.13;;;24.60;;
26036;SDS011;13810;48.376;10.944;2022-12-19T00:30:31;84.85;;;27.13;;
26036;SDS011;13810;48.376;10.944;2022-12-19T00:31:02;91.13;;;27.33;;
26036;SDS011;13810;48.376;10.944;2022-12-19T00:31:34;74.15;;;24.98;;
26036;SDS011;13810;48.376;10.944;2022-12-19T00:32:05;79.32;;;26.35;;
26036;SDS011;13810;48.376;10.944;2022-12-19T00:32:36;78.03;;;23.45;;
26036;SDS011;13810;48.376;10.944;2022-12-19T00:33:07;77.63;;;25.33;;
26036;SDS011;13810;48.376;10.944;2022-12-19T00:33:37;80.32;;;26.63;;
26036;SDS011;13810;48.376;10.944;2022-12-19T00:34:08;86.15;;;27.15;;
26036;SDS011;13810;48.376;10.944;2022-12-19T00:34:39;70.15;;;25.83;;
26036;SDS011;13810;48.376;10.944;2022-12-19T00:35:10;81.25;;;24.80;;
26036;SDS011;13810;48.376;10.944;2022-12-19T00:35:40;81.13;;;25.10;;
26036;SDS011;13810;48.376;10.944;2022-12-19T00:36:12;76.47;;;25.60;;
26036;SDS011;13810;48.376;10.944;2022-12-19T00:36:44;70.43;;;24.42;;
26036;SDS011;13810;48.376;10.944;2022-12-19T00:37:15;75.10;;;25.95;;
26036;SDS011;13810;48.376;10.944;2022-12-19T00:37:45;74.85;;;25.08;;
26036;SDS011;13810;48.376;10.944;2022-12-19T00:38:16;71.55;;;25.48;;
26036;SDS011;13810;48.376;10.944;2022-12-19T00:38:47;78.03;;;24.75;;
26036;SDS011;13810;48.376;10.944;2022-12-19T00:39:18;81.15;;;25.38;;
26036;SDS011;13810;48.376;10.944;2022-12-19T00:39:49;66.10;;;24.33;;
26036;SDS011;13810;48.376;10.944;2022-12-19T00:40:19;61.60;;;24.25;;
26036;SDS011;13810;48.376;10.944;2022-12-19T00:40:50;70.60;;;24.80;;
26036;SDS011;13810;48.376;10.944;2022-12-19T00:41:22;73.35;;;24.35;;
26036;SDS011;13810;48.376;10.944;2022-12-19T00:41:54;69.43;;;24.58;;
26036;SDS011;13810;48.376;10.944;2022-12-19T00:42:25;78.85;;;24.38;;
26036;SDS011;13810;48.376;10.944;2022-12-19T00:42:56;77.88;;;26.05;;
26036;SDS011;13810;48.376;10.944;2022-12-19T00:43:27;64.68;;;23.95;;
26036;SDS011;13810;48.376;10.944;2022-12-19T00:43:59;73.80;;;24.13;;
26036;SDS011;13810;48.376;10.944;2022-12-19T00:44:32;62.95;;;24.25;;
26036;SDS011;13810;48.376;10.944;2022-12-19T00:45:03;79.20;;;25.75;;
26036;SDS011;13810;48.376;10.944;2022-12-19T00:45:36;76.43;;;25.35;;
26036;SDS011;13810;48.376;10.944;2022-12-19T00:46:09;70.22;;;26.02;;
26036;SDS011;13810;48.376;10.944;2022-12-19T00:46:43;78.80;;;24.70;;
26036;SDS011;13810;48.376;10.944;2022-12-19T00:47:14;75.75;;;25.63;;
26036;SDS011;13810;48.376;10.944;2022-12-19T00:47:45;77.97;;;24.83;;
26036;SDS011;13810;48.376;10.944;2022-12-19T00:48:15;77.80;;;25.75;;
26036;SDS011;13810;48.376;10.944;2022-12-19T00:48:46;74.95;;;25.27;;
26036;SDS011;13810;48.376;10.944;2022-12-19T00:49:17;65.50;;;22.73;;
26036;SDS011;13810;48.376;10.944;2022-12-19T00:49:47;67.13;;;25.05;;
26036;SDS011;13810;48.376;10.944;2022-12-19T00:50:18;73.07;;;25.52;;
26036;SDS011;13810;48.376;10.944;2022-12-19T00:50:48;70.05;;;23.58;;
26036;SDS011;13810;48.376;10.944;2022-12-19T00:51:20;69.70;;;24.83;;
26036;SDS011;13810;48.376;10.944;2022-12-19T00:51:52;70.72;;;25.92;;
26036;SDS011;13810;48.376;10.944;2022-12-19T00:52:25;69.68;;;26.52;;
26036;SDS011;13810;48.376;10.944;2022-12-19T00:52:56;78.50;;;25.52;;
26036;SDS011;13810;48.376;10.944;2022-12-19T00:53:27;71.90;;;24.05;;
26036;SDS011;13810;48.376;10.944;2022-12-19T00:53:58;75.38;;;26.85;;
26036;SDS011;13810;48.376;10.944;2022-12-19T00:54:29;76.13;;;26.75;;
26036;SDS011;13810;48.376;10.944;2022-12-19T00:55:00;78.18;;;24.33;;
26036;SDS011;13810;48.376;10.944;2022-12-19T00:55:31;78.30;;;24.20;;
26036;SDS011;13810;48.376;10.944;2022-12-19T00:56:05;67.82;;;23.65;;
26036;SDS011;13810;48.376;10.944;2022-12-19T00:56:43;72.47;;;22.50;;
26036;SDS011;13810;48.376;10.944;2022-12-19T00:57:14;66.38;;;24.63;;
26036;SDS011;13810;48.376;10.944;2022-12-19T00:57:47;72.65;;;24.40;;
26036;SDS011;13810;48.376;10.944;2022-12-19T00:58:18;68.70;;;25.17;;
26036;SDS011;13810;48.376;10.944;2022-12-19T00:58:49;67.10;;;24.00;;
26036;SDS011;13810;48.376;10.944;2022-12-19T00:59:21;74.05;;;26.80;;
26036;SDS011;13810;48.376;10.944;2022-12-19T00:59:51;73.88;;;24.60;;
26036;SDS011;13810;48.376;10.944;2022-12-19T01:00:22;74.03;;;24.73;;
26036;SDS011;13810;48.376;10.944;2022-12-19T01:00:54;76.45;;;24.40;;
26036;SDS011;13810;48.376;10.944;2022-12-19T01:01:26;64.75;;;23.25;;
26036;SDS011;13810;48.376;10.944;2022-12-19T01:02:06;74.20;;;22.70;;
26036;SDS011;13810;48.376;10.944;2022-12-19T01:02:37;64.47;;;22.83;;
26036;SDS011;13810;48.376;10.944;2022-12-19T01:03:07;57.15;;;23.38;;
26036;SDS011;13810;48.376;10.944;2022-12-19T01:03:38;68.63;;;24.77;;
26036;SDS011;13810;48.376;10.944;2022-12-19T01:04:12;68.28;;;24.30;;
26036;SDS011;13810;48.376;10.944;2022-12-19T01:04:44;70.10;;;23.83;;
26036;SDS011;13810;48.376;10.944;2022-12-19T01:05:14;61.58;;;24.92;;
26036;SDS011;13810;48.376;10.944;2022-12-19T01:05:45;62.15;;;24.50;;
26036;SDS011;13810;48.376;10.944;2022-12-19T01:06:16;64.55;;;23.20;;
26036;SDS011;13810;48.376;10.944;2022-12-19T01:06:47;70.03;;;24.17;;
26036;SDS011;13810;48.376;10.944;2022-12-19T01:07:18;71.75;;;24.27;;
26036;SDS011;13810;48.376;10.944;2022-12-19T01:07:49;61.83;;;22.63;;
26036;SDS011;13810;48.376;10.944;2022-12-19T01:08:20;75.50;;;24.50;;
26036;SDS011;13810;48.376;10.944;2022-12-19T01:08:50;70.72;;;24.80;;
26036;SDS011;13810;48.376;10.944;2022-12-19T01:09:21;70.95;;;25.23;;
26036;SDS011;13810;48.376;10.944;2022-12-19T01:09:52;66.35;;;24.58;;
26036;SDS011;13810;48.376;10.944;2022-12-19T01:10:23;71.70;;;25.77;;
26036;SDS011;13810;48.376;10.944;2022-12-19T01:10:53;64.93;;;22.65;;
26036;SDS011;13810;48.376;10.944;2022-12-19T01:11:24;62.05;;;25.08;;
26036;SDS011;13810;48.376;10.944;2022-12-19T01:12:13;73.70;;;26.05;;
26036;SDS011;13810;48.376;10.944;2022-12-19T01:13:03;60.78;;;22.35;;
26036;SDS011;13810;48.376;10.944;2022-12-19T01:13:34;66.40;;;23.27;;
26036;SDS011;13810;48.376;10.944;2022-12-19T01:14:06;69.18;;;24.75;;
26036;SDS011;13810;48.376;10.944;2022-12-19T01:14:37;61.85;;;23.38;;
26036;SDS011;13810;48.376;10.944;2022-12-19T01:15:08;70.45;;;25.08;;
26036;SDS011;13810;48.376;10.944;2022-12-19T01:15:39;74.25;;;25.40;;
26036;SDS011;13810;48.376;10.944;2022-12-19T01:16:12;62.05;;;23.77;;
26036;SDS011;13810;48.376;10.944;2022-12-19T01:16:43;70.82;;;24.85;;
26036;SDS011;13810;48.376;10.944;2022-12-19T01:17:13;76.15;;;25.40;;
26036;SDS011;13810;48.376;10.944;2022-12-19T01:17:44;71.55;;;23.98;;
26036;SDS011;13810;48.376;10.944;2022-12-19T01:18:18;69.47;;;23.80;;
26036;SDS011;13810;48.376;10.944;2022-12-19T01:18:49;71.20;;;23.90;;
26036;SDS011;13810;48.376;10.944;2022-12-19T01:19:19;63.15;;;23.83;;
26036;SDS011;13810;48.376;10.944;2022-12-19T01:19:51;62.13;;;23.60;;
26036;SDS011;13810;48.376;10.944;2022-12-19T01:20:21;68.43;;;25.63;;
26036;SDS011;13810;48.376;10.944;2022-12-19T01:20:52;66.72;;;23.85;;
26036;SDS011;13810;48.376;10.944;2022-12-19T01:21:22;67.45;;;23.05;;
26036;SDS011;13810;48.376;10.944;2022-12-19T01:21:53;78.43;;;27.42;;
26036;SDS011;13810;48.376;10.944;2022-12-19T01:22:24;61.90;;;22.48;;
26036;SDS011;13810;48.376;10.944;2022-12-19T01:22:55;66.05;;;23.17;;
26036;SDS011;13810;48.376;10.944;2022-12-19T01:23:26;64.72;;;23.15;;
26036;SDS011;13810;48.376;10.944;2022-12-19T01:23:57;62.22;;;23.95;;
26036;SDS011;13810;48.376;10.944;2022-12-19T01:24:28;66.93;;;22.25;;
26036;SDS011;13810;48.376;10.944;2022-12-19T01:24:58;71.68;;;25.40;;
26036;SDS011;13810;48.376;10.944;2022-12-19T01:25:29;67.32;;;23.85;;
26036;SDS011;13810;48.376;10.944;2022-12-19T01:26:00;73.82;;;24.40;;
26036;SDS011;13810;48.376;10.944;2022-12-19T01:26:31;63.90;;;22.75;;
26036;SDS011;13810;48.376;10.944;2022-12-19T01:27:01;69.68;;;23.30;;
26036;SDS011;13810;48.376;10.944;2022-12-19T01:27:32;73.80;;;24.45;;
26036;SDS011;13810;48.376;10.944;2022-12-19T01:28:03;67.25;;;23.70;;
26036;SDS011;13810;48.376;10.944;2022-12-19T01:28:35;69.57;;;23.40;;
26036;SDS011;13810;48.376;10.944;2022-12-19T01:29:05;72.38;;;24.50;;
26036;SDS011;13810;48.376;10.944;2022-12-19T01:29:36;68.78;;;23.90;;
26036;SDS011;13810;48.376;10.944;2022-12-19T01:30:07;76.03;;;24.48;;
26036;SDS011;13810;48.376;10.944;2022-12-19T01:30:39;75.60;;;23.88;;
26036;SDS011;13810;48.376;10.944;2022-12-19T01:31:10;70.50;;;23.55;;
26036;SDS011;13810;48.376;10.944;2022-12-19T01:31:40;66.28;;;23.92;;
26036;SDS011;13810;48.376;10.944;2022-12-19T01:32:11;59.90;;;22.75;;
26036;SDS011;13810;48.376;10.944;2022-12-19T01:32:42;66.82;;;23.20;;
26036;SDS011;13810;48.376;10.944;2022-12-19T01:33:13;67.57;;;24.60;;
26036;SDS011;13810;48.376;10.944;2022-12-19T01:33:45;58.15;;;23.08;;
26036;SDS011;13810;48.376;10.944;2022-12-19T01:34:16;63.05;;;23.92;;
26036;SDS011;13810;48.376;10.944;2022-12-19T01:34:46;62.65;;;22.45;;
26036;SDS011;13810;48.376;10.944;2022-12-19T01:35:17;63.17;;;23.38;;
26036;SDS011;13810;48.376;10.944;2022-12-19T01:35:48;59.63;;;20.92;;
26036;SDS011;13810;48.376;10.944;2022-12-19T01:36:18;71.75;;;23.90;;
26036;SDS011;13810;48.376;10.944;2022-12-19T01:36:49;68.18;;;23.65;;
26036;SDS011;13810;48.376;10.944;2022-12-19T01:37:20;70.03;;;23.00;;
26036;SDS011;13810;48.376;10.944;2022-12-19T01:37:51;57.10;;;21.88;;
26036;SDS011;13810;48.376;10.944;2022-12-19T01:38:23;71.38;;;24.77;;
26036;SDS011;13810;48.376;10.944;2022-12-19T01:38:54;65.10;;;23.15;;
26036;SDS011;13810;48.376;10.944;2022-12-19T01:39:28;62.72;;;23.25;;
26036;SDS011;13810;48.376;10.944;2022-12-19T01:39:58;67.57;;;22.63;;
26036;SDS011;13810;48.376;10.944;2022-12-19T01:40:29;66.03;;;21.90;;
26036;SDS011;13810;48.376;10.944;2022-12-19T01:41:00;63.45;;;22.67;;
26036;SDS011;13810;48.376;10.944;2022-12-19T01:41:31;63.95;;;24.05;;
26036;SDS011;13810;48.376;10.944;2022-12-19T01:42:02;59.95;;;21.60;;
26036;SDS011;13810;48.376;10.944;2022-12-19T01:42:39;64.80;;;24.45;;
26036;SDS011;13810;48.376;10.944;2022-12-19T01:43:12;71.88;;;23.35;;
26036;SDS011;13810;48.376;10.944;2022-12-19T01:44:34;68.10;;;22.20;;
26036;SDS011;13810;48.376;10.944;2022-12-19T01:45:38;74.90;;;23.90;;
26036;SDS011;13810;48.376;10.944;2022-12-19T01:46:09;76.82;;;23.80;;
26036;SDS011;13810;48.376;10.944;2022-12-19T01:46:47;67.00;;;23.95;;
26036;SDS011;13810;48.376;10.944;2022-12-19T01:47:20;66.18;;;23.23;;
26036;SDS011;13810;48.376;10.944;2022-12-19T01:48:41;73.60;;;22.45;;
26036;SDS011;13810;48.376;10.944;2022-12-19T01:49:26;58.63;;;20.73;;
26036;SDS011;13810;48.376;10.944;2022-12-19T01:50:37;64.80;;;21.40;;
26036;SDS011;13810;48.376;10.944;2022-12-19T01:51:18;57.33;;;20.70;;
26036;SDS011;13810;48.376;10.944;2022-12-19T01:51:51;62.55;;;21.73;;
26036;SDS011;13810;48.376;10.944;2022-12-19T01:52:24;62.67;;;23.15;;
26036;SDS011;13810;48.376;10.944;2022-12-19T01:52:54;58.92;;;22.42;;
26036;SDS011;13810;48.376;10.944;2022-12-19T01:53:28;67.70;;;22.23;;
26036;SDS011;13810;48.376;10.944;2022-12-19T01:54:03;60.42;;;21.85;;
26036;SDS011;13810;48.376;10.944;2022-12-19T01:54:40;62.22;;;22.25;;
26036;SDS011;13810;48.376;10.944;2022-12-19T01:55:11;66.75;;;23.80;;
26036;SDS011;13810;48.376;10.944;2022-12-19T01:55:42;57.83;;;24.20;;
26036;SDS011;13810;48.376;10.944;2022-12-19T01:56:13;70.50;;;25.45;;
26036;SDS011;13810;48.376;10.944;2022-12-19T01:56:48;60.53;;;23.63;;
26036;SDS011;13810;48.376;10.944;2022-12-19T01:57:21;68.20;;;22.95;;
26036;SDS011;13810;48.376;10.944;2022-12-19T01:57:53;72.18;;;26.13;;
26036;SDS011;13810;48.376;10.944;2022-12-19T01:58:25;64.90;;;23.50;;
26036;SDS011;13810;48.376;10.944;2022-12-19T01:58:55;63.42;;;22.25;;
26036;SDS011;13810;48.376;10.944;2022-12-19T01:59:32;58.47;;;22.33;;
26036;SDS011;13810;48.376;10.944;2022-12-19T02:00:06;55.10;;;21.80;;
26036;SDS011;13810;48.376;10.944;2022-12-19T02:00:44;59.97;;;21.48;;
26036;SDS011;13810;48.376;10.944;2022-12-19T02:01:15;71.13;;;25.20;;
26036;SDS011;13810;48.376;10.944;2022-12-19T02:01:47;57.83;;;22.75;;
26036;SDS011;13810;48.376;10.944;2022-12-19T02:02:28;65.25;;;23.95;;
26036;SDS011;13810;48.376;10.944;2022-12-19T02:03:13;59.90;;;21.48;;
26036;SDS011;13810;48.376;10.944;2022-12-19T02:03:56;67.63;;;23.50;;
26036;SDS011;13810;48.376;10.944;2022-12-19T02:04:27;52.25;;;20.15;;
26036;SDS011;13810;48.376;10.944;2022-12-19T02:04:59;56.10;;;20.10;;
26036;SDS011;13810;48.376;10.944;2022-12-19T02:05:33;61.42;;;22.98;;
26036;SDS011;13810;48.376;10.944;2022-12-19T02:06:04;64.25;;;22.70;;
26036;SDS011;13810;48.376;10.944;2022-12-19T02:06:36;58.95;;;24.13;;
26036;SDS011;13810;48.376;10.944;2022-12-19T02:07:09;67.72;;;23.58;;
26036;SDS011;13810;48.376;10.944;2022-12-19T02:07:40;60.70;;;21.20;;
26036;SDS011;13810;48.376;10.944;2022-12-19T02:08:12;66.55;;;23.45;;
26036;SDS011;13810;48.376;10.944;2022-12-19T02:08:43;60.38;;;23.10;;
26036;SDS011;13810;48.376;10.944;2022-12-19T02:09:17;64.93;;;24.02;;
26036;SDS011;13810;48.376;10.944;2022-12-19T02:09:50;56.85;;;21.13;;
26036;SDS011;13810;48.376;10.944;2022-12-19T02:10:23;69.07;;;22.65;;
26036;SDS011;13810;48.376;10.944;2022-12-19T02:10:53;55.55;;;22.42;;
26036;SDS011;13810;48.376;10.944;2022-12-19T02:11:24;65.88;;;23.30;;
26036;SDS011;13810;48.376;10.944;2022-12-19T02:11:55;69.85;;;23.08;;
26036;SDS011;13810;48.376;10.944;2022-12-19T02:12:29;59.53;;;21.90;;
26036;SDS011;13810;48.376;10.944;2022-12-19T02:13:04;60.90;;;21.17;;
26036;SDS011;13810;48.376;10.944;2022-12-19T02:13:35;58.85;;;21.52;;
26036;SDS011;13810;48.376;10.944;2022-12-19T02:14:06;67.38;;;21.27;;
26036;SDS011;13810;48.376;10.944;2022-12-19T02:14:37;58.70;;;22.00;;
26036;SDS011;13810;48.376;10.944;2022-12-19T02:15:08;58.90;;;23.55;;
26036;SDS011;13810;48.376;10.944;2022-12-19T02:15:46;60.85;;;23.05;;
26036;SDS011;13810;48.376;10.944;2022-12-19T02:16:38;53.17;;;22.35;;
26036;SDS011;13810;48.376;10.944;2022-12-19T02:19:48;58.03;;;22.02;;
26036;SDS011;13810;48.376;10.944;2022-12-19T02:21:57;47.92;;;16.83;;
26036;SDS011;13810;48.376;10.944;2022-12-19T02:23:14;48.45;;;18.63;;
26036;SDS011;13810;48.376;10.944;2022-12-19T02:24:53;47.95;;;18.95;;
26036;SDS011;13810;48.376;10.944;2022-12-19T02:26:55;49.83;;;20.23;;
26036;SDS011;13810;48.376;10.944;2022-12-19T02:31:31;49.05;;;17.48;;
26036;SDS011;13810;48.376;10.944;2022-12-19T02:32:10;55.85;;;20.25;;
26036;SDS011;13810;48.376;10.944;2022-12-19T02:33:05;51.65;;;19.65;;
26036;SDS011;13810;48.376;10.944;2022-12-19T02:33:54;50.63;;;18.90;;
26036;SDS011;13810;48.376;10.944;2022-12-19T02:34:36;57.95;;;19.45;;
26036;SDS011;13810;48.376;10.944;2022-12-19T02:35:30;51.67;;;21.25;;
26036;SDS011;13810;48.376;10.944;2022-12-19T02:36:18;53.53;;;17.92;;
26036;SDS011;13810;48.376;10.944;2022-12-19T02:37:03;68.95;;;20.20;;
26036;SDS011;13810;48.376;10.944;2022-12-19T02:37:43;52.20;;;19.77;;
26036;SDS011;13810;48.376;10.944;2022-12-19T02:38:28;53.38;;;19.25;;
26036;SDS011;13810;48.376;10.944;2022-12-19T02:39:10;46.08;;;18.08;;
26036;SDS011;13810;48.376;10.944;2022-12-19T02:40:05;48.45;;;18.38;;
26036;SDS011;13810;48.376;10.944;2022-12-19T02:40:42;54.85;;;18.35;;
26036;SDS011;13810;48.376;10.944;2022-12-19T02:41:22;52.53;;;19.73;;
26036;SDS011;13810;48.376;10.944;2022-12-19T02:42:12;56.83;;;20.88;;
26036;SDS011;13810;48.376;10.944;2022-12-19T02:42:50;53.83;;;20.73;;
26036;SDS011;13810;48.376;10.944;2022-12-19T02:43:29;53.80;;;21.15;;
26036;SDS011;13810;48.376;10.944;2022-12-19T02:44:03;62.40;;;20.25;;
26036;SDS011;13810;48.376;10.944;2022-12-19T02:44:48;53.47;;;20.55;;
26036;SDS011;13810;48.376;10.944;2022-12-19T02:45:21;55.92;;;18.98;;
26036;SDS011;13810;48.376;10.944;2022-12-19T02:45:53;54.35;;;21.60;;
26036;SDS011;13810;48.376;10.944;2022-12-19T02:46:26;54.40;;;21.58;;
26036;SDS011;13810;48.376;10.944;2022-12-19T02:46:58;51.85;;;20.23;;
26036;SDS011;13810;48.376;10.944;2022-12-19T02:47:31;63.83;;;23.58;;
26036;SDS011;13810;48.376;10.944;2022-12-19T02:48:03;61.78;;;20.70;;
26036;SDS011;13810;48.376;10.944;2022-12-19T02:48:35;55.00;;;21.73;;
26036;SDS011;13810;48.376;10.944;2022-12-19T02:49:07;60.25;;;22.15;;
26036;SDS011;13810;48.376;10.944;2022-12-19T02:49:38;60.40;;;21.92;;
26036;SDS011;13810;48.376;10.944;2022-12-19T02:50:09;70.82;;;21.77;;
26036;SDS011;13810;48.376;10.944;2022-12-19T02:50:42;61.75;;;21.15;;
26036;SDS011;13810;48.376;10.944;2022-12-19T02:51:14;59.88;;;21.98;;
26036;SDS011;13810;48.376;10.944;2022-12-19T02:51:44;64.72;;;23.52;;
26036;SDS011;13810;48.376;10.944;2022-12-19T02:52:48;63.55;;;23.65;;
26036;SDS011;13810;48.376;10.944;2022-12-19T02:53:19;64.35;;;21.55;;
26036;SDS011;13810;48.376;10.944;2022-12-19T02:53:50;61.15;;;22.00;;
26036;SDS011;13810;48.376;10.944;2022-12-19T02:54:21;62.10;;;22.80;;
26036;SDS011;13810;48.376;10.944;2022-12-19T02:54:56;66.82;;;23.35;;
26036;SDS011;13810;48.376;10.944;2022-12-19T02:55:29;67.78;;;22.25;;
26036;SDS011;13810;48.376;10.944;2022-12-19T02:56:58;61.88;;;21.05;;
26036;SDS011;13810;48.376;10.944;2022-12-19T03:00:40;56.28;;;22.45;;
26036;SDS011;13810;48.376;10.944;2022-12-19T03:01:31;64.18;;;20.05;;
26036;SDS011;13810;48.376;10.944;2022-12-19T03:05:03;51.85;;;20.77;;
26036;SDS011;13810;48.376;10.944;2022-12-19T03:06:52;65.03;;;21.63;;
26036;SDS011;13810;48.376;10.944;2022-12-19T03:07:48;56.05;;;21.05;;
26036;SDS011;13810;48.376;10.944;2022-12-19T03:09:49;54.38;;;19.52;;
26036;SDS011;13810;48.376;10.944;2022-12-19T03:10:24;55.00;;;18.77;;
26036;SDS011;13810;48.376;10.944;2022-12-19T03:11:11;48.20;;;18.20;;
26036;SDS011;13810;48.376;10.944;2022-12-19T03:11:43;52.83;;;21.63;;
26036;SDS011;13810;48.376;10.944;2022-12-19T03:12:25;59.08;;;22.77;;
26036;SDS011;13810;48.376;10.944;2022-12-19T03:13:00;67.93;;;22.45;;
26036;SDS011;13810;48.376;10.944;2022-12-19T03:14:22;60.30;;;21.27;;
26036;SDS011;13810;48.376;10.944;2022-12-19T03:14:53;51.78;;;20.25;;
26036;SDS011;13810;48.376;10.944;2022-12-19T03:15:27;59.60;;;21.00;;
26036;SDS011;13810;48.376;10.944;2022-12-19T03:15:58;63.55;;;21.92;;
26036;SDS011;13810;48.376;10.944;2022-12-19T03:16:30;60.03;;;22.48;;
26036;SDS011;13810;48.376;10.944;2022-12-19T03:17:04;67.07;;;21.63;;
26036;SDS011;13810;48.376;10.944;2022-12-19T03:17:36;59.70;;;22.70;;
26036;SDS011;13810;48.376;10.944;2022-12-19T03:18:07;61.53;;;22.67;;
26036;SDS011;13810;48.376;10.944;2022-12-19T03:18:39;60.17;;;22.20;;
26036;SDS011;13810;48.376;10.944;2022-12-19T03:19:10;65.20;;;23.15;;
26036;SDS011;13810;48.376;10.944;2022-12-19T03:19:43;60.75;;;22.88;;
26036;SDS011;13810;48.376;10.944;2022-12-19T03:20:21;59.10;;;22.42;;
26036;SDS011;13810;48.376;10.944;2022-12-19T03:21:00;63.47;;;22.38;;
26036;SDS011;13810;48.376;10.944;2022-12-19T03:21:49;56.67;;;20.80;;
26036;SDS011;13810;48.376;10.944;2022-12-19T03:22:21;57.20;;;22.45;;
26036;SDS011;13810;48.376;10.944;2022-12-19T03:22:52;66.50;;;22.67;;
26036;SDS011;13810;48.376;10.944;2022-12-19T03:23:23;63.70;;;22.08;;
26036;SDS011;13810;48.376;10.944;2022-12-19T03:23:54;60.67;;;23.45;;
26036;SDS011;13810;48.376;10.944;2022-12-19T03:24:26;68.00;;;24.63;;
26036;SDS011;13810;48.376;10.944;2022-12-19T03:24:57;72.85;;;24.88;;
26036;SDS011;13810;48.376;10.944;2022-12-19T03:25:28;62.20;;;24.63;;
26036;SDS011;13810;48.376;10.944;2022-12-19T03:26:02;67.25;;;24.83;;
26036;SDS011;13810;48.376;10.944;2022-12-19T03:26:37;74.25;;;24.58;;
26036;SDS011;13810;48.376;10.944;2022-12-19T03:27:15;68.47;;;22.95;;
26036;SDS011;13810;48.376;10.944;2022-12-19T03:27:51;59.08;;;23.40;;
26036;SDS011;13810;48.376;10.944;2022-12-19T03:28:33;62.97;;;22.60;;
26036;SDS011;13810;48.376;10.944;2022-12-19T03:30:03;69.75;;;24.75;;
26036;SDS011;13810;48.376;10.944;2022-12-19T03:30:37;61.65;;;22.27;;
26036;SDS011;13810;48.376;10.944;2022-12-19T03:31:10;64.57;;;21.25;;
26036;SDS011;13810;48.376;10.944;2022-12-19T03:31:43;70.75;;;22.38;;
26036;SDS011;13810;48.376;10.944;2022-12-19T03:32:15;64.82;;;23.15;;
26036;SDS011;13810;48.376;10.944;2022-12-19T03:32:47;65.80;;;23.52;;
26036;SDS011;13810;48.376;10.944;2022-12-19T03:33:18;60.95;;;22.83;;
26036;SDS011;13810;48.376;10.944;2022-12-19T03:33:53;68.50;;;24.52;;
26036;SDS011;13810;48.376;10.944;2022-12-19T03:35:19;58.28;;;22.48;;
26036;SDS011;13810;48.376;10.944;2022-12-19T03:35:53;59.58;;;22.27;;
26036;SDS011;13810;48.376;10.944;2022-12-19T03:36:28;61.72;;;21.52;;
26036;SDS011;13810;48.376;10.944;2022-12-19T03:37:02;60.00;;;21.92;;
26036;SDS011;13810;48.376;10.944;2022-12-19T03:37:35;56.28;;;21.90;;
26036;SDS011;13810;48.376;10.944;2022-12-19T03:38:09;53.85;;;22.60;;
26036;SDS011;13810;48.376;10.944;2022-12-19T03:38:43;69.10;;;21.65;;